North Branch, Iowa
Current Conditions -  °F | °C
As of 6:55 PM on Saturday 22 Nov 2014 (Local Time) from KADU Reporting Station
Overcast Overcast  
Wind Chill: 54°   Ceiling: 500
Heat Index: 54°   Visibility: 7mi
Dew Point: 46°   Wind: 13mph
Humidity: 77%   Direction: 190°S
Pressure: 29.63"   Gusts: 23mph
Location:  41.5232°N, 94.6432°W
Report Text: KADU 230055Z AUTO 19011G20KT 7SM OVC005 12/08 A2963 RMK AO2
Loading
Personal Weather Stations






























Interactive Weather Map New forecast layout! Learn more

10-Day Weather Forecast

Advertisements
Track Severe Weather on mobile